createdAt,value
2022-10-22T00:00:43.072Z,454.00
2022-10-22T00:01:38.370Z,453.00
2022-10-22T00:02:33.714Z,448.00
2022-10-22T00:03:28.721Z,453.00
2022-10-22T00:04:23.994Z,456.00
2022-10-22T00:05:19.180Z,451.00
2022-10-22T00:06:14.286Z,454.00
2022-10-22T00:07:09.551Z,456.00
2022-10-22T00:08:04.708Z,457.00
2022-10-22T00:09:00.045Z,456.00
2022-10-22T00:09:55.264Z,452.00
2022-10-22T00:10:50.417Z,458.00
2022-10-22T00:11:45.679Z,458.00
2022-10-22T00:12:40.976Z,452.00
2022-10-22T00:13:36.177Z,456.00
2022-10-22T00:14:31.321Z,457.00
2022-10-22T00:15:27.191Z,460.00
2022-10-22T00:16:22.322Z,458.00
2022-10-22T00:17:17.587Z,455.00
2022-10-22T00:18:12.801Z,456.00
2022-10-22T00:19:08.188Z,461.00
2022-10-22T00:20:03.332Z,454.00
2022-10-22T00:20:58.480Z,458.00
2022-10-22T00:21:53.772Z,457.00
2022-10-22T00:22:49.235Z,447.00
2022-10-22T00:23:44.244Z,455.00
2022-10-22T00:24:39.513Z,451.00
2022-10-22T00:25:34.690Z,454.00
2022-10-22T00:26:29.969Z,453.00
2022-10-22T00:27:25.244Z,457.00
2022-10-22T00:28:20.470Z,451.00
2022-10-22T00:29:15.599Z,449.00
2022-10-22T00:30:10.875Z,448.00
2022-10-22T00:31:06.002Z,447.00
2022-10-22T00:32:01.423Z,452.00
2022-10-22T00:32:56.964Z,444.00
2022-10-22T00:33:51.982Z,438.00
2022-10-22T00:34:47.258Z,445.00
2022-10-22T00:35:42.399Z,449.00
2022-10-22T00:36:37.666Z,446.00
2022-10-22T00:37:32.815Z,444.00
2022-10-22T00:38:28.002Z,442.00
2022-10-22T00:39:23.263Z,449.00
2022-10-22T00:40:18.694Z,442.00
2022-10-22T00:41:13.764Z,451.00
2022-10-22T00:42:08.904Z,443.00
2022-10-22T00:43:04.056Z,444.00
2022-10-22T00:43:59.415Z,443.00
2022-10-22T00:44:54.707Z,445.00
2022-10-22T00:45:49.788Z,438.00
2022-10-22T00:46:44.819Z,440.00
2022-10-22T00:47:39.841Z,435.00
2022-10-22T00:48:34.875Z,432.00
2022-10-22T00:49:30.038Z,437.00
2022-10-22T00:50:25.181Z,435.00
2022-10-22T00:51:20.212Z,437.00
2022-10-22T00:52:15.222Z,434.00
2022-10-22T00:53:10.502Z,433.00
2022-10-22T00:54:05.362Z,433.00
2022-10-22T00:55:00.411Z,436.00
2022-10-22T00:55:55.523Z,434.00
2022-10-22T00:56:50.562Z,434.00
2022-10-22T00:57:49.238Z,431.00
2022-10-22T00:58:44.220Z,434.00
2022-10-22T00:59:39.354Z,434.00
2022-10-22T01:00:34.381Z,428.00
2022-10-22T01:01:29.678Z,434.00
2022-10-22T01:02:24.555Z,432.00
2022-10-22T01:03:19.583Z,435.00
2022-10-22T01:04:14.640Z,435.00
2022-10-22T01:05:09.658Z,439.00
2022-10-22T01:06:04.689Z,434.00
2022-10-22T01:06:59.722Z,441.00
2022-10-22T01:07:54.762Z,442.00
2022-10-22T01:08:49.794Z,435.00
2022-10-22T01:09:44.843Z,430.00
2022-10-22T01:10:39.866Z,430.00
2022-10-22T01:11:34.858Z,427.00
2022-10-22T01:12:29.876Z,431.00
2022-10-22T01:13:24.886Z,430.00
2022-10-22T01:14:23.134Z,435.00
2022-10-22T01:15:18.043Z,431.00
2022-10-22T01:16:13.023Z,435.00
2022-10-22T01:17:08.080Z,436.00
2022-10-22T01:18:03.040Z,436.00
2022-10-22T01:18:58.032Z,438.00
2022-10-22T01:19:53.212Z,436.00
2022-10-22T01:20:48.071Z,442.00
2022-10-22T01:21:43.145Z,436.00
2022-10-22T01:22:38.131Z,441.00
2022-10-22T01:23:33.187Z,442.00
2022-10-22T01:24:28.189Z,444.00
2022-10-22T01:25:23.199Z,440.00
2022-10-22T01:26:18.304Z,437.00
2022-10-22T01:27:13.357Z,436.00
2022-10-22T01:28:08.418Z,435.00
2022-10-22T01:29:05.733Z,431.00
2022-10-22T01:30:00.716Z,431.00
2022-10-22T01:30:55.799Z,433.00
2022-10-22T01:31:50.822Z,431.00
2022-10-22T01:32:45.891Z,434.00
2022-10-22T01:33:40.988Z,434.00
2022-10-22T01:34:36.037Z,435.00
2022-10-22T01:35:31.125Z,435.00
2022-10-22T01:36:26.172Z,434.00
2022-10-22T01:37:21.181Z,432.00
2022-10-22T01:38:16.241Z,435.00
2022-10-22T01:39:11.280Z,437.00
2022-10-22T01:40:06.745Z,431.00
2022-10-22T01:41:01.904Z,435.00
2022-10-22T01:41:57.067Z,435.00
2022-10-22T01:42:52.924Z,430.00
2022-10-22T01:43:48.219Z,428.00
2022-10-22T01:44:44.478Z,433.00
2022-10-22T01:45:39.248Z,434.00
2022-10-22T01:46:34.540Z,431.00
2022-10-22T01:47:30.403Z,432.00
2022-10-22T01:48:25.735Z,433.00
2022-10-22T01:49:20.999Z,437.00
2022-10-22T01:50:17.402Z,430.00
2022-10-22T01:51:12.697Z,436.00
2022-10-22T01:52:08.588Z,431.00
2022-10-22T01:53:03.728Z,438.00
2022-10-22T01:53:59.167Z,438.00
2022-10-22T01:54:54.941Z,436.00
2022-10-22T01:55:50.073Z,438.00
2022-10-22T01:56:46.113Z,443.00
2022-10-22T01:57:41.373Z,448.00
2022-10-22T01:58:36.404Z,445.00
2022-10-22T01:59:32.409Z,440.00
2022-10-22T02:00:27.648Z,448.00
2022-10-22T02:01:22.776Z,446.00
2022-10-22T02:02:19.316Z,448.00
2022-10-22T02:03:15.115Z,444.00
2022-10-22T02:04:10.340Z,446.00
2022-10-22T02:05:05.501Z,450.00
2022-10-22T02:06:00.688Z,444.00
2022-10-22T02:06:56.531Z,444.00
2022-10-22T02:07:52.695Z,451.00
2022-10-22T02:08:47.598Z,444.00
2022-10-22T02:09:42.688Z,445.00
2022-10-22T02:10:38.015Z,442.00
2022-10-22T02:11:33.864Z,441.00
2022-10-22T02:12:29.112Z,437.00
2022-10-22T02:13:24.233Z,439.00
2022-10-22T02:14:20.614Z,442.00
2022-10-22T02:15:15.916Z,446.00
2022-10-22T02:16:11.752Z,444.00
2022-10-22T02:17:06.906Z,444.00
2022-10-22T02:18:02.097Z,443.00
2022-10-22T02:18:57.834Z,444.00
2022-10-22T02:19:53.144Z,447.00
2022-10-22T02:20:49.112Z,444.00
2022-10-22T02:21:44.277Z,457.00
2022-10-22T02:22:39.912Z,449.00
2022-10-22T02:23:35.340Z,445.00
2022-10-22T02:24:30.635Z,443.00
2022-10-22T02:25:26.058Z,442.00
2022-10-22T02:26:21.078Z,444.00
2022-10-22T02:27:17.589Z,446.00
2022-10-22T02:28:12.855Z,450.00
2022-10-22T02:29:08.028Z,453.00
2022-10-22T02:30:03.964Z,450.00
2022-10-22T02:30:59.166Z,450.00
2022-10-22T02:31:54.312Z,442.00
2022-10-22T02:32:50.720Z,447.00
2022-10-22T02:33:46.031Z,451.00
2022-10-22T02:34:41.747Z,454.00
2022-10-22T02:35:36.888Z,445.00
2022-10-22T02:36:32.066Z,448.00
2022-10-22T02:37:27.810Z,447.00
2022-10-22T02:38:23.107Z,443.00
2022-10-22T02:39:19.088Z,438.00
2022-10-22T02:40:14.218Z,441.00
2022-10-22T02:41:09.733Z,440.00
2022-10-22T02:42:05.463Z,433.00
2022-10-22T02:43:00.737Z,437.00
2022-10-22T02:43:56.003Z,434.00
2022-10-22T02:44:51.204Z,440.00
2022-10-22T02:45:46.372Z,436.00
2022-10-22T02:46:41.812Z,439.00
2022-10-22T02:47:36.968Z,435.00
2022-10-22T02:48:32.243Z,439.00
2022-10-22T02:49:28.097Z,438.00
2022-10-22T02:50:23.388Z,427.00
2022-10-22T02:51:18.679Z,437.00
2022-10-22T02:52:13.818Z,437.00
2022-10-22T02:53:08.834Z,436.00
2022-10-22T02:54:03.841Z,435.00
2022-10-22T02:54:58.881Z,435.00
2022-10-22T02:55:54.050Z,436.00
2022-10-22T02:56:49.098Z,439.00
2022-10-22T02:57:44.160Z,434.00
2022-10-22T02:58:39.195Z,432.00
2022-10-22T02:59:34.268Z,432.00
2022-10-22T03:00:29.315Z,437.00
2022-10-22T03:01:24.372Z,438.00
2022-10-22T03:02:19.417Z,436.00
2022-10-22T03:03:14.606Z,440.00
2022-10-22T03:04:09.775Z,439.00
2022-10-22T03:05:04.806Z,434.00
2022-10-22T03:05:59.909Z,432.00
2022-10-22T03:06:55.014Z,432.00
2022-10-22T03:07:50.035Z,431.00
2022-10-22T03:08:45.193Z,433.00
2022-10-22T03:09:40.257Z,410.00
2022-10-22T03:10:35.376Z,413.00
2022-10-22T03:11:30.405Z,413.00
2022-10-22T03:12:25.513Z,414.00
2022-10-22T03:13:20.529Z,413.00
2022-10-22T03:14:15.631Z,414.00
2022-10-22T03:15:10.662Z,414.00
2022-10-22T03:16:06.748Z,412.00
2022-10-22T03:17:02.185Z,408.00
2022-10-22T03:17:58.049Z,415.00
2022-10-22T03:18:53.188Z,412.00
2022-10-22T03:19:48.632Z,416.00
2022-10-22T03:20:44.385Z,413.00
2022-10-22T03:21:39.519Z,415.00
2022-10-22T03:22:34.700Z,414.00
2022-10-22T03:23:30.956Z,417.00
2022-10-22T03:24:26.141Z,420.00
2022-10-22T03:25:22.085Z,416.00
2022-10-22T03:26:17.212Z,414.00
2022-10-22T03:27:12.406Z,420.00
2022-10-22T03:28:08.258Z,425.00
2022-10-22T03:29:03.550Z,425.00
2022-10-22T03:29:59.227Z,421.00
2022-10-22T03:30:54.549Z,417.00
2022-10-22T03:31:49.732Z,414.00
2022-10-22T03:32:45.602Z,417.00
2022-10-22T03:33:40.745Z,423.00
2022-10-22T03:34:36.015Z,423.00
2022-10-22T03:35:32.417Z,414.00
2022-10-22T03:36:27.736Z,420.00
2022-10-22T03:37:23.547Z,421.00
2022-10-22T03:38:18.690Z,423.00
2022-10-22T03:39:13.964Z,416.00
2022-10-22T03:40:09.679Z,418.00
2022-10-22T03:41:04.987Z,417.00
2022-10-22T03:42:00.982Z,419.00
2022-10-22T03:42:56.002Z,420.00
2022-10-22T03:43:51.321Z,420.00
2022-10-22T03:44:47.154Z,415.00
2022-10-22T03:45:42.454Z,419.00
2022-10-22T03:46:37.853Z,422.00
2022-10-22T03:47:34.080Z,416.00
2022-10-22T03:48:29.239Z,420.00
2022-10-22T03:49:24.964Z,423.00
2022-10-22T03:50:20.222Z,417.00
2022-10-22T03:51:15.507Z,420.00
2022-10-22T03:52:11.218Z,420.00
2022-10-22T03:53:06.653Z,413.00
2022-10-22T03:54:02.370Z,420.00
2022-10-22T03:54:57.628Z,421.00
2022-10-22T03:55:53.185Z,420.00
2022-10-22T03:56:48.787Z,418.00
2022-10-22T03:57:44.093Z,421.00
2022-10-22T03:58:39.241Z,424.00
2022-10-22T03:59:35.751Z,419.00
2022-10-22T04:00:31.086Z,425.00
2022-10-22T04:01:26.874Z,418.00
2022-10-22T04:02:21.995Z,417.00
2022-10-22T04:03:17.182Z,419.00
2022-10-22T04:04:13.024Z,422.00
2022-10-22T04:05:08.399Z,420.00
2022-10-22T04:06:03.964Z,419.00
2022-10-22T04:06:59.253Z,417.00
2022-10-22T04:07:54.318Z,417.00
2022-10-22T04:08:50.198Z,416.00
2022-10-22T04:09:45.376Z,416.00
2022-10-22T04:10:40.648Z,414.00
2022-10-22T04:11:37.032Z,416.00
2022-10-22T04:12:32.644Z,419.00
2022-10-22T04:13:28.052Z,416.00
2022-10-22T04:14:23.168Z,420.00
2022-10-22T04:15:18.424Z,418.00
2022-10-22T04:16:13.595Z,414.00
2022-10-22T04:17:10.104Z,416.00
2022-10-22T04:18:05.086Z,411.00
2022-10-22T04:19:00.280Z,422.00
2022-10-22T04:19:56.125Z,414.00
2022-10-22T04:20:51.429Z,422.00
2022-10-22T04:21:46.451Z,421.00
2022-10-22T04:22:42.947Z,420.00
2022-10-22T04:23:38.374Z,416.00
2022-10-22T04:24:34.067Z,421.00
2022-10-22T04:25:29.286Z,414.00
2022-10-22T04:26:24.467Z,418.00
2022-10-22T04:27:20.308Z,414.00
2022-10-22T04:28:15.601Z,419.00
2022-10-22T04:29:13.595Z,418.00
2022-10-22T04:30:06.606Z,415.00
2022-10-22T04:31:02.473Z,414.00
2022-10-22T04:31:57.517Z,419.00
2022-10-22T04:32:52.749Z,420.00
2022-10-22T04:33:47.889Z,415.00
2022-10-22T04:34:43.127Z,414.00
2022-10-22T04:35:38.174Z,420.00
2022-10-22T04:36:33.293Z,410.00
2022-10-22T04:37:28.276Z,420.00
2022-10-22T04:38:23.320Z,421.00
2022-10-22T04:39:18.441Z,412.00
2022-10-22T04:40:13.488Z,417.00
2022-10-22T04:41:08.523Z,416.00
2022-10-22T04:42:03.662Z,422.00
2022-10-22T04:42:58.684Z,413.00
2022-10-22T04:43:53.795Z,417.00
2022-10-22T04:44:48.810Z,414.00
2022-10-22T04:45:44.031Z,417.00
2022-10-22T04:46:38.948Z,417.00
2022-10-22T04:47:33.958Z,414.00
2022-10-22T04:48:29.091Z,416.00
2022-10-22T04:49:24.179Z,412.00
2022-10-22T04:50:19.284Z,414.00
2022-10-22T04:51:14.274Z,418.00
2022-10-22T04:52:09.291Z,416.00
2022-10-22T04:53:04.312Z,418.00
2022-10-22T04:53:59.308Z,418.00
2022-10-22T04:54:54.328Z,417.00
2022-10-22T04:55:49.507Z,418.00
2022-10-22T04:56:44.483Z,419.00
2022-10-22T04:57:39.904Z,419.00
2022-10-22T04:58:34.641Z,420.00
2022-10-22T04:59:29.666Z,418.00
2022-10-22T05:00:24.850Z,420.00
2022-10-22T05:01:19.764Z,417.00
2022-10-22T05:02:14.764Z,421.00
2022-10-22T05:03:09.758Z,419.00
2022-10-22T05:04:04.807Z,418.00
2022-10-22T05:04:59.808Z,416.00
2022-10-22T05:05:55.223Z,412.00
2022-10-22T05:06:50.373Z,421.00
2022-10-22T05:07:45.513Z,419.00
2022-10-22T05:08:41.993Z,415.00
2022-10-22T05:09:37.293Z,419.00
2022-10-22T05:10:32.898Z,413.00
2022-10-22T05:11:28.074Z,413.00
2022-10-22T05:12:23.223Z,419.00
2022-10-22T05:13:19.101Z,419.00
2022-10-22T05:14:14.388Z,426.00
2022-10-22T05:15:10.263Z,424.00
2022-10-22T05:16:05.420Z,423.00
2022-10-22T05:17:00.720Z,418.00
2022-10-22T05:17:56.559Z,416.00
2022-10-22T05:18:51.858Z,415.00
2022-10-22T05:19:47.260Z,420.00
2022-10-22T05:20:43.410Z,415.00
2022-10-22T05:21:38.711Z,417.00
2022-10-22T05:22:34.591Z,418.00
2022-10-22T05:23:29.861Z,420.00
2022-10-22T05:24:25.160Z,422.00
2022-10-22T05:25:21.020Z,421.00
2022-10-22T05:26:16.180Z,424.00
2022-10-22T05:27:12.378Z,413.00
2022-10-22T05:28:07.257Z,420.00
2022-10-22T05:29:02.809Z,427.00
2022-10-22T05:29:58.565Z,420.00
2022-10-22T05:30:53.724Z,422.00
2022-10-22T05:31:48.954Z,420.00
2022-10-22T05:32:45.327Z,420.00
2022-10-22T05:33:40.698Z,420.00
2022-10-22T05:34:36.425Z,422.00
2022-10-22T05:35:31.688Z,425.00
2022-10-22T05:36:26.885Z,424.00
2022-10-22T05:37:22.680Z,417.00
2022-10-22T05:38:17.902Z,424.00
2022-10-22T05:39:13.664Z,425.00
2022-10-22T05:40:19.630Z,420.00
2022-10-22T05:41:05.255Z,425.00
2022-10-22T05:42:00.089Z,422.00
2022-10-22T05:42:55.315Z,417.00
2022-10-22T05:43:50.522Z,422.00
2022-10-22T05:44:46.979Z,419.00
2022-10-22T05:45:42.215Z,416.00
2022-10-22T05:46:37.980Z,416.00
2022-10-22T05:47:33.351Z,422.00
2022-10-22T05:48:28.610Z,417.00
2022-10-22T05:49:24.389Z,423.00
2022-10-22T05:50:19.757Z,421.00
2022-10-22T05:51:15.662Z,424.00
2022-10-22T05:52:10.751Z,424.00
2022-10-22T05:53:05.992Z,423.00
2022-10-22T05:54:01.917Z,431.00
2022-10-22T05:54:57.169Z,421.00
2022-10-22T05:55:52.460Z,425.00
2022-10-22T05:56:48.658Z,421.00
2022-10-22T05:57:43.920Z,424.00
2022-10-22T05:58:39.619Z,426.00
2022-10-22T05:59:34.985Z,421.00
2022-10-22T06:00:30.377Z,423.00
2022-10-22T06:01:26.252Z,424.00
2022-10-22T06:02:21.622Z,432.00
2022-10-22T06:03:17.369Z,431.00
2022-10-22T06:04:12.743Z,433.00
2022-10-22T06:05:08.057Z,435.00
2022-10-22T06:06:03.692Z,434.00
2022-10-22T06:06:59.059Z,434.00
2022-10-22T06:07:54.510Z,435.00
2022-10-22T06:08:49.689Z,435.00
2022-10-22T06:09:45.955Z,433.00
2022-10-22T06:10:41.172Z,427.00
2022-10-22T06:11:36.485Z,433.00
2022-10-22T06:12:32.232Z,429.00
2022-10-22T06:13:27.542Z,433.00
2022-10-22T06:14:22.990Z,436.00
2022-10-22T06:15:19.149Z,439.00
2022-10-22T06:16:14.472Z,441.00
2022-10-22T06:17:10.271Z,435.00
2022-10-22T06:18:05.711Z,434.00
2022-10-22T06:19:01.306Z,435.00
2022-10-22T06:19:56.976Z,434.00
2022-10-22T06:20:52.287Z,435.00
2022-10-22T06:21:48.035Z,435.00
2022-10-22T06:22:43.668Z,433.00
2022-10-22T06:23:38.786Z,434.00
2022-10-22T06:24:34.540Z,434.00
2022-10-22T06:25:29.842Z,430.00
2022-10-22T06:26:25.168Z,434.00
2022-10-22T06:27:20.635Z,426.00
2022-10-22T06:28:16.032Z,426.00
2022-10-22T06:29:11.518Z,432.00
2022-10-22T06:30:06.587Z,433.00
2022-10-22T06:31:01.684Z,433.00
2022-10-22T06:31:56.740Z,437.00
2022-10-22T06:32:51.830Z,442.00
2022-10-22T06:33:46.895Z,432.00
2022-10-22T06:34:41.983Z,435.00
2022-10-22T06:35:37.104Z,429.00
2022-10-22T06:36:32.233Z,443.00
2022-10-22T06:37:27.295Z,437.00
2022-10-22T06:38:22.296Z,436.00
2022-10-22T06:39:17.396Z,433.00
2022-10-22T06:40:12.497Z,428.00
2022-10-22T06:41:07.608Z,437.00
2022-10-22T06:42:02.614Z,431.00
2022-10-22T06:42:57.699Z,435.00
2022-10-22T06:43:52.826Z,426.00
2022-10-22T06:44:49.447Z,429.00
2022-10-22T06:45:44.958Z,429.00
2022-10-22T06:46:43.391Z,429.00
2022-10-22T06:47:36.920Z,432.00
2022-10-22T06:48:32.193Z,432.00
2022-10-22T06:49:27.557Z,430.00
2022-10-22T06:50:23.008Z,427.00
2022-10-22T06:51:18.262Z,431.00
2022-10-22T06:52:13.537Z,429.00
2022-10-22T06:53:09.000Z,430.00
2022-10-22T06:54:04.378Z,436.00
2022-10-22T06:54:59.741Z,433.00
2022-10-22T06:55:55.247Z,432.00
2022-10-22T06:56:50.425Z,430.00
2022-10-22T06:57:45.791Z,427.00
2022-10-22T06:58:41.164Z,430.00
2022-10-22T06:59:36.714Z,434.00
2022-10-22T07:01:27.558Z,438.00
2022-10-22T07:02:22.852Z,428.00
2022-10-22T07:03:18.299Z,426.00
2022-10-22T07:04:13.306Z,434.00
2022-10-22T07:05:08.292Z,427.00
2022-10-22T07:06:03.318Z,428.00
2022-10-22T07:06:58.470Z,434.00
2022-10-22T07:07:53.721Z,424.00
2022-10-22T07:08:48.810Z,431.00
2022-10-22T07:09:43.737Z,430.00
2022-10-22T07:10:39.827Z,434.00
2022-10-22T07:11:35.393Z,434.00
2022-10-22T07:12:30.763Z,433.00
2022-10-22T07:13:25.933Z,439.00
2022-10-22T07:14:21.472Z,431.00
2022-10-22T07:15:16.879Z,427.00
2022-10-22T07:16:12.465Z,435.00
2022-10-22T07:17:08.059Z,436.00
2022-10-22T07:18:03.288Z,436.00
2022-10-22T07:18:58.848Z,431.00
2022-10-22T07:19:54.113Z,432.00
2022-10-22T07:20:49.662Z,433.00
2022-10-22T07:21:44.977Z,435.00
2022-10-22T07:22:40.512Z,432.00
2022-10-22T07:23:35.382Z,431.00
2022-10-22T07:24:30.391Z,426.00
2022-10-22T07:25:25.450Z,430.00
2022-10-22T07:26:20.478Z,428.00
2022-10-22T07:27:15.440Z,429.00
2022-10-22T07:28:10.457Z,430.00
2022-10-22T07:29:05.550Z,435.00
2022-10-22T07:30:00.573Z,434.00
2022-10-22T07:30:55.614Z,434.00
2022-10-22T07:31:50.715Z,435.00
2022-10-22T07:32:45.744Z,431.00
2022-10-22T07:33:40.749Z,441.00
2022-10-22T07:34:37.571Z,434.00
2022-10-22T07:35:30.762Z,431.00
2022-10-22T07:36:26.212Z,442.00
2022-10-22T07:37:21.597Z,433.00
2022-10-22T07:38:16.599Z,437.00
2022-10-22T07:39:11.640Z,431.00
2022-10-22T07:40:06.659Z,436.00
2022-10-22T07:41:01.676Z,436.00
2022-10-22T07:41:56.679Z,421.00
2022-10-22T07:42:51.804Z,434.00
2022-10-22T07:43:46.865Z,430.00
2022-10-22T07:44:41.906Z,428.00
2022-10-22T07:45:41.251Z,437.00
2022-10-22T07:46:36.351Z,432.00
2022-10-22T07:47:31.387Z,432.00
2022-10-22T07:48:26.527Z,446.00
2022-10-22T07:49:21.570Z,443.00
2022-10-22T07:50:16.568Z,432.00
2022-10-22T07:51:11.657Z,428.00
2022-10-22T07:52:06.712Z,428.00
2022-10-22T07:53:01.804Z,431.00
2022-10-22T07:53:57.068Z,438.00
2022-10-22T07:54:52.129Z,435.00
2022-10-22T07:55:47.809Z,440.00
2022-10-22T07:56:43.260Z,433.00
2022-10-22T07:57:38.701Z,432.00
2022-10-22T07:58:34.151Z,432.00
2022-10-22T07:59:29.737Z,431.00
2022-10-22T08:00:25.489Z,438.00
2022-10-22T08:01:20.633Z,435.00
2022-10-22T08:02:16.066Z,427.00
2022-10-22T08:03:11.493Z,435.00
2022-10-22T08:04:06.920Z,429.00
2022-10-22T08:05:02.509Z,432.00
2022-10-22T08:05:57.949Z,439.00
2022-10-22T08:06:53.392Z,433.00
2022-10-22T08:07:49.028Z,435.00
2022-10-22T08:08:48.114Z,430.00
2022-10-22T08:09:43.542Z,433.00
2022-10-22T08:10:39.090Z,442.00
2022-10-22T08:11:34.383Z,438.00
2022-10-22T08:12:29.789Z,438.00
2022-10-22T08:13:25.260Z,435.00
2022-10-22T08:14:20.697Z,435.00
2022-10-22T08:15:16.122Z,442.00
2022-10-22T08:16:11.527Z,437.00
2022-10-22T08:17:06.942Z,435.00
2022-10-22T08:18:02.398Z,436.00
2022-10-22T08:18:57.809Z,438.00
2022-10-22T08:19:53.374Z,442.00
2022-10-22T08:20:48.803Z,436.00
2022-10-22T08:21:44.258Z,439.00
2022-10-22T08:22:39.384Z,436.00
2022-10-22T08:23:34.327Z,441.00
2022-10-22T08:24:29.524Z,432.00
2022-10-22T08:25:24.535Z,428.00
2022-10-22T08:26:19.598Z,432.00
2022-10-22T08:27:14.674Z,428.00
2022-10-22T08:28:09.747Z,433.00
2022-10-22T08:29:04.830Z,427.00
2022-10-22T08:29:59.899Z,427.00
2022-10-22T08:30:54.981Z,442.00
2022-10-22T08:31:52.019Z,444.00
2022-10-22T08:32:49.259Z,442.00
2022-10-22T08:33:42.116Z,432.00
2022-10-22T08:34:37.208Z,441.00
2022-10-22T08:35:32.665Z,444.00
2022-10-22T08:36:28.164Z,448.00
2022-10-22T08:37:23.665Z,453.00
2022-10-22T08:38:19.245Z,443.00
2022-10-22T08:39:14.673Z,445.00
2022-10-22T08:40:10.102Z,454.00
2022-10-22T08:41:05.558Z,451.00
2022-10-22T08:42:01.161Z,452.00
2022-10-22T08:42:56.634Z,452.00
2022-10-22T08:43:52.094Z,444.00
2022-10-22T08:44:47.586Z,443.00
2022-10-22T08:45:43.183Z,450.00
2022-10-22T08:46:38.786Z,451.00
2022-10-22T08:47:34.179Z,438.00
2022-10-22T08:48:29.252Z,451.00
2022-10-22T08:49:24.338Z,450.00
2022-10-22T08:50:19.382Z,449.00
2022-10-22T08:51:14.476Z,448.00
2022-10-22T08:52:09.709Z,445.00
2022-10-22T08:53:04.846Z,445.00
2022-10-22T08:53:59.822Z,443.00
2022-10-22T08:54:54.906Z,436.00
2022-10-22T08:55:49.937Z,444.00
2022-10-22T08:56:45.003Z,447.00
2022-10-22T08:57:40.109Z,441.00
2022-10-22T08:58:35.273Z,439.00
2022-10-22T08:59:30.257Z,447.00
2022-10-22T09:00:25.255Z,446.00
2022-10-22T09:01:20.324Z,464.00
2022-10-22T09:02:15.821Z,476.00
2022-10-22T09:03:11.565Z,459.00
2022-10-22T09:04:06.883Z,464.00
2022-10-22T09:05:02.509Z,452.00
2022-10-22T09:05:57.986Z,449.00
2022-10-22T09:06:54.450Z,473.00
2022-10-22T09:07:48.421Z,458.00
2022-10-22T09:08:43.565Z,474.00
2022-10-22T09:09:38.601Z,467.00
2022-10-22T09:10:34.613Z,473.00
2022-10-22T09:11:29.682Z,461.00
2022-10-22T09:12:24.870Z,480.00
2022-10-22T09:13:19.962Z,499.00
2022-10-22T09:15:10.071Z,478.00
2022-10-22T09:16:05.142Z,483.00
2022-10-22T09:17:00.229Z,476.00
2022-10-22T09:17:55.302Z,473.00
2022-10-22T09:18:50.346Z,479.00
2022-10-22T09:19:45.437Z,486.00
2022-10-22T09:20:41.699Z,474.00
2022-10-22T09:21:37.053Z,478.00
2022-10-22T09:22:32.898Z,476.00
2022-10-22T09:23:27.967Z,477.00
2022-10-22T09:24:23.686Z,474.00
2022-10-22T09:25:19.037Z,502.00
2022-10-22T09:26:14.483Z,489.00
2022-10-22T09:27:09.953Z,484.00
2022-10-22T09:28:05.625Z,478.00
2022-10-22T09:29:00.948Z,524.00
2022-10-22T09:29:56.535Z,484.00
2022-10-22T09:30:51.900Z,481.00
2022-10-22T09:31:47.549Z,439.00
2022-10-22T09:32:43.631Z,439.00
2022-10-22T09:33:38.491Z,432.00
2022-10-22T09:34:34.078Z,432.00
2022-10-22T09:35:29.536Z,426.00
2022-10-22T09:36:25.001Z,429.00
2022-10-22T09:37:20.570Z,449.00
2022-10-22T09:38:16.040Z,453.00
2022-10-22T09:39:11.552Z,457.00
2022-10-22T09:40:06.974Z,456.00
2022-10-22T09:41:02.396Z,456.00
2022-10-22T09:41:58.162Z,453.00
2022-10-22T09:42:54.304Z,448.00
2022-10-22T09:43:49.738Z,461.00
2022-10-22T09:44:47.763Z,458.00
2022-10-22T09:45:40.675Z,456.00
2022-10-22T09:46:38.203Z,457.00
2022-10-22T09:47:42.995Z,455.00
2022-10-22T09:48:30.042Z,459.00
2022-10-22T09:49:24.549Z,463.00
2022-10-22T09:50:19.844Z,471.00
2022-10-22T09:51:15.289Z,456.00
2022-10-22T09:52:10.771Z,463.00
2022-10-22T09:53:06.173Z,462.00
2022-10-22T09:54:01.786Z,461.00
2022-10-22T09:54:57.449Z,460.00
2022-10-22T09:55:52.838Z,466.00
2022-10-22T09:56:48.415Z,472.00
2022-10-22T09:57:44.552Z,469.00
2022-10-22T09:58:39.376Z,444.00
2022-10-22T09:59:34.995Z,442.00
2022-10-22T10:00:29.988Z,440.00
2022-10-22T10:01:25.083Z,454.00
2022-10-22T10:02:33.880Z,448.00
2022-10-22T10:03:16.265Z,435.00
2022-10-22T10:04:10.363Z,433.00
2022-10-22T10:05:05.341Z,431.00
2022-10-22T10:06:04.711Z,435.00
2022-10-22T10:06:56.428Z,435.00
2022-10-22T10:07:50.426Z,439.00
2022-10-22T10:08:45.570Z,459.00
2022-10-22T10:09:40.979Z,467.00
2022-10-22T10:10:36.061Z,461.00
2022-10-22T10:11:31.127Z,461.00
2022-10-22T10:12:26.156Z,458.00
2022-10-22T10:13:21.161Z,458.00
2022-10-22T10:14:16.352Z,457.00
2022-10-22T10:15:11.294Z,467.00
2022-10-22T10:16:06.500Z,461.00
2022-10-22T10:17:01.623Z,463.00
2022-10-22T10:17:57.063Z,469.00
2022-10-22T10:18:52.591Z,463.00
2022-10-22T10:19:48.148Z,470.00
2022-10-22T10:20:43.713Z,463.00
2022-10-22T10:21:39.052Z,459.00
2022-10-22T10:22:34.645Z,458.00
2022-10-22T10:23:30.097Z,465.00
2022-10-22T10:24:25.586Z,469.00
2022-10-22T10:25:21.189Z,458.00
2022-10-22T10:26:16.758Z,460.00
2022-10-22T10:27:12.113Z,458.00
2022-10-22T10:28:07.615Z,464.00
2022-10-22T10:29:03.171Z,468.00
2022-10-22T10:29:58.261Z,456.00
2022-10-22T10:30:53.277Z,461.00
2022-10-22T10:31:48.441Z,461.00
2022-10-22T10:32:47.147Z,461.00
2022-10-22T10:33:42.190Z,459.00
2022-10-22T10:34:37.232Z,460.00
2022-10-22T10:35:32.280Z,459.00
2022-10-22T10:36:27.280Z,460.00
2022-10-22T10:37:22.285Z,463.00
2022-10-22T10:38:17.321Z,470.00
2022-10-22T10:39:12.345Z,479.00
2022-10-22T10:40:07.501Z,470.00
2022-10-22T10:41:02.554Z,465.00
2022-10-22T10:41:57.568Z,466.00
2022-10-22T10:42:52.789Z,472.00
2022-10-22T10:43:48.219Z,472.00
2022-10-22T10:44:43.624Z,474.00
2022-10-22T10:45:39.120Z,471.00
2022-10-22T10:46:36.979Z,484.00
2022-10-22T10:47:30.000Z,472.00
2022-10-22T10:48:25.486Z,471.00
2022-10-22T10:49:20.927Z,467.00
2022-10-22T10:50:16.386Z,465.00
2022-10-22T10:51:11.837Z,465.00
2022-10-22T10:52:07.557Z,465.00
2022-10-22T10:53:02.873Z,463.00
2022-10-22T10:53:58.283Z,469.00
2022-10-22T10:54:53.715Z,462.00
2022-10-22T10:55:49.179Z,461.00
2022-10-22T10:56:44.772Z,465.00
2022-10-22T10:57:40.496Z,482.00
2022-10-22T10:58:35.715Z,467.00
2022-10-22T10:59:31.288Z,461.00
2022-10-22T11:00:26.698Z,460.00
2022-10-22T11:01:22.152Z,466.00
2022-10-22T11:02:17.573Z,462.00
2022-10-22T11:03:12.993Z,468.00
2022-10-22T11:04:08.466Z,461.00
2022-10-22T11:05:03.458Z,463.00
2022-10-22T11:05:58.474Z,468.00
2022-10-22T11:06:56.321Z,470.00
2022-10-22T11:07:52.286Z,470.00
2022-10-22T11:08:44.538Z,470.00
2022-10-22T11:09:38.686Z,469.00
2022-10-22T11:10:33.769Z,461.00
2022-10-22T11:11:32.250Z,467.00
2022-10-22T11:12:27.325Z,470.00
2022-10-22T11:13:25.344Z,465.00
2022-10-22T11:14:20.502Z,468.00
2022-10-22T11:15:15.582Z,466.00
2022-10-22T11:16:10.652Z,470.00
2022-10-22T11:17:05.727Z,489.00
2022-10-22T11:18:00.702Z,468.00
2022-10-22T11:18:55.737Z,472.00
2022-10-22T11:19:52.952Z,476.00
2022-10-22T11:20:45.772Z,478.00
2022-10-22T11:21:40.811Z,476.00
2022-10-22T11:22:36.055Z,469.00
2022-10-22T11:23:31.480Z,471.00
2022-10-22T11:24:26.990Z,466.00
2022-10-22T11:25:22.420Z,468.00
2022-10-22T11:26:17.998Z,473.00
2022-10-22T11:27:13.510Z,474.00
2022-10-22T11:28:11.261Z,443.00
2022-10-22T11:29:03.427Z,447.00
2022-10-22T11:29:58.442Z,439.00
2022-10-22T11:30:53.479Z,443.00
2022-10-22T11:31:48.646Z,441.00
2022-10-22T11:32:43.862Z,441.00